West Eaton, New York
Current Conditions -  °F | °C
As of 5:54 PM on Sunday 21 Dec 2014 (Local Time) from KSYR Reporting Station
Light Snow Light Snow  
Wind Chill: 30°   Ceiling: 2600
Heat Index: 30°   Visibility: 8mi
Dew Point: 26°   Wind: 3mph
Humidity: 85%   Direction: 80°E
Pressure: 30.33"   Gusts: NA
Location:  42.85°N, 75.66°W
Report Text: KSYR 212254Z 08003KT 8SM -SN OVC026 M01/M03 A3033 RMK AO2 SLP272 PCPN VERY LIGHT P0000 T10111033 $
Loading
Personal Weather Stations






























Interactive Weather Map New forecast layout! Learn more

10-Day Weather Forecast

Advertisements
Track Severe Weather on mobile